• Join FlightAware (Why Join?)
  • Login
  • US Flag 
08:06PM EDT


 

Airport Tracker/Info


-or-


 

Live Flight TrackerFlight Track Log ✈ OPT452 ✈ 07-May-2013 ✈ KROC - KHPN

Flight Track Log - Related Links

Times and Time Zones

All times are in EDT time to prevent confusion due to time zone crossing. See the OPT452 flight status page for this flight to view local times or setup timezone preferences in your user account.

Time Position Orientation Groundspeed Altitude Reporting Facility
EDT Latitude Longitude Course Direction KTS MPH feet Rate Location/Type
09:09AM 43.1203 -77.6906 228° Southwest 150 173 1,400  Level Cleveland Center
09:11AM 43.0781 -77.7550 228° Southwest 188 216 6,200 3,180 Climbing Cleveland Center
09:12AM 43.0386 -77.6800 126° Southeast 145 167 9,300 3,000 Climbing Cleveland Center
09:13AM 43.0092 -77.5878 114° Southeast 195 224 12,200 2,940 Climbing Cleveland Center
09:14AM 42.9794 -77.4928 113° Southeast 234 269 15,200 2,700 Climbing Cleveland Center
09:15AM 42.9497 -77.3947 112° Southeast 265 305 17,600 2,100 Climbing Cleveland Center
09:16AM 42.9178 -77.2886 112° Southeast 285 328 19,400 1,920 Climbing Cleveland Center
09:17AM 42.8592 -77.1061 114° Southeast 300 345 22,900 1,920 Climbing Boston Center
09:18AM 42.8242 -76.9900 112° Southeast 316 364 24,700 1,500 Climbing Boston Center
09:19AM 42.7875 -76.8628 111° Southeast 336 387 26,000 1,140 Climbing Boston Center
09:20AM 42.7467 -76.7353 114° Southeast 353 406 27,000 480 Climbing Boston Center
09:21AM 42.7017 -76.5939 113° Southeast 380 437 27,000  Level Boston Center
09:22AM 42.6569 -76.4467 112° Southeast 398 458 27,000  Level Boston Center
09:23AM 42.6139 -76.3083 113° Southeast 405 466 27,000  Level Boston Center
09:24AM 42.5725 -76.1761 113° Southeast 405 466 27,000  Level Boston Center
09:25AM 42.5364 -76.0642 114° Southeast 405 466 27,000  Level Boston Center
09:26AM 42.4814 -75.8919 113° Southeast 405 466 27,000  Level Boston Center
09:27AM 42.4356 -75.7486 113° Southeast 405 466 27,000  Level Boston Center
09:28AM 42.3894 -75.6111 114° Southeast 405 466 27,000 -60 Level Boston Center
09:29AM 42.3453 -75.4683 113° Southeast 405 466 26,900 -1,200 Descending Boston Center
09:30AM 42.2992 -75.3203 113° Southeast 405 466 24,600 -2,460 Descending Boston Center
09:31AM 42.2547 -75.1836 114° Southeast 405 466 22,100 -2,400 Descending Boston Center
09:32AM 42.2117 -75.0583 115° Southeast 388 447 19,900 -2,040 Descending Boston Center
09:33AM 42.1706 -74.9389 115° Southeast 365 420 18,000 -960 Descending Boston Center
09:34AM 42.1231 -74.8278 120° Southeast 350 403 18,000 -60 Level Boston Center
09:36AM 42.0753 -74.7169 120° Southeast 345 397 17,900 -540 Descending Boston Center
09:37AM 42.0069 -74.5886 126° Southeast 350 403 16,900 -1,200 Descending Boston Center
09:38AM 41.9458 -74.5083 136° Southeast 333 383 15,600 -1,440 Descending Boston Center
09:39AM 41.8725 -74.4197 138° Southeast 332 382 14,100 -1,440 Descending Boston Center
09:40AM 41.7947 -74.3419 143° Southeast 327 376 12,700 -1,320 Descending Boston Center
09:41AM 41.7308 -74.2844 146° Southeast 310 357 11,500 -1,200 Descending Boston Center
09:42AM 41.6631 -74.2214 145° Southeast 280 322 10,400 -1,080 Descending Boston Center
09:43AM 41.6078 -74.1697 145° Southeast 274 315 9,400 -1,080 Descending Boston Center
09:44AM 41.5419 -74.1097 146° Southeast 268 308 8,300 -1,080 Descending Boston Center
09:44AM 41.4833 -74.0500 143° Southeast 269 310 7,400 -1,080 Descending New York TRACON
09:45AM 41.4333 -74.0000 143° Southeast 269 310 6,400 -1,080 Descending New York TRACON
09:46AM 41.3667 -73.9500 151° Southeast 264 304 5,400 -1,080 Descending New York TRACON
09:47AM 41.3000 -73.9000 151° Southeast 261 300 4,300 -960 Descending New York TRACON
09:48AM 41.2500 -73.8500 143° Southeast 254 292 3,500 -600 Descending New York TRACON
09:49AM 41.1833 -73.8000 151° Southeast 230 265 3,100 -780 Descending New York TRACON
09:50AM 41.1333 -73.7667 153° Southeast 197 227 2,000 -1,080 Descending New York TRACON
09:51AM 41.1000 -73.7333 143° Southeast 154 177 1,000 -1,020 Descending New York TRACON
09:53AM 41.0667 -73.7000 147° Southeast  Level FlightAware Approximate
10:00AM 41.0669 -73.7076 147° Southeast  Level Estimated
10:01AM 41.0667 -73.7000 147° Southeast  Level FlightAware Approximate